sensor_id;sensor_type;location;lat;lon;timestamp;P1;durP1;ratioP1;P2;durP2;ratioP2
44204;SDS011;30163;42.698;23.344;2023-10-09T00:02:20;8.88;;;2.72;;
44204;SDS011;30163;42.698;23.344;2023-10-09T00:04:45;10.85;;;3.15;;
44204;SDS011;30163;42.698;23.344;2023-10-09T00:07:11;9.45;;;2.55;;
44204;SDS011;30163;42.698;23.344;2023-10-09T00:09:37;4.18;;;1.83;;
44204;SDS011;30163;42.698;23.344;2023-10-09T00:12:20;9.38;;;2.45;;
44204;SDS011;30163;42.698;23.344;2023-10-09T00:14:50;9.15;;;2.50;;
44204;SDS011;30163;42.698;23.344;2023-10-09T00:17:20;4.30;;;1.58;;
44204;SDS011;30163;42.698;23.344;2023-10-09T00:19:47;7.00;;;2.95;;
44204;SDS011;30163;42.698;23.344;2023-10-09T00:22:14;5.10;;;2.35;;
44204;SDS011;30163;42.698;23.344;2023-10-09T00:24:49;10.77;;;2.15;;
44204;SDS011;30163;42.698;23.344;2023-10-09T00:27:34;10.77;;;2.10;;
44204;SDS011;30163;42.698;23.344;2023-10-09T00:30:01;7.75;;;2.38;;
44204;SDS011;30163;42.698;23.344;2023-10-09T00:32:26;9.15;;;1.90;;
44204;SDS011;30163;42.698;23.344;2023-10-09T00:34:54;7.13;;;2.22;;
44204;SDS011;30163;42.698;23.344;2023-10-09T00:37:23;4.95;;;2.35;;
44204;SDS011;30163;42.698;23.344;2023-10-09T00:39:50;5.40;;;2.28;;
44204;SDS011;30163;42.698;23.344;2023-10-09T00:42:22;7.63;;;2.35;;
44204;SDS011;30163;42.698;23.344;2023-10-09T00:45:14;3.92;;;1.80;;
44204;SDS011;30163;42.698;23.344;2023-10-09T00:47:51;4.10;;;1.80;;
44204;SDS011;30163;42.698;23.344;2023-10-09T00:50:21;6.75;;;2.15;;
44204;SDS011;30163;42.698;23.344;2023-10-09T00:52:53;11.70;;;2.40;;
44204;SDS011;30163;42.698;23.344;2023-10-09T00:55:28;15.48;;;2.08;;
44204;SDS011;30163;42.698;23.344;2023-10-09T00:58:14;6.07;;;1.98;;
44204;SDS011;30163;42.698;23.344;2023-10-09T01:00:41;5.93;;;2.00;;
44204;SDS011;30163;42.698;23.344;2023-10-09T01:03:10;12.65;;;2.58;;
44204;SDS011;30163;42.698;23.344;2023-10-09T01:05:43;9.77;;;1.75;;
44204;SDS011;30163;42.698;23.344;2023-10-09T01:08:20;6.60;;;2.17;;
44204;SDS011;30163;42.698;23.344;2023-10-09T01:10:57;6.28;;;3.35;;
44204;SDS011;30163;42.698;23.344;2023-10-09T01:13:34;6.70;;;2.10;;
44204;SDS011;30163;42.698;23.344;2023-10-09T01:16:26;8.00;;;2.05;;
44204;SDS011;30163;42.698;23.344;2023-10-09T01:18:56;11.07;;;1.88;;
44204;SDS011;30163;42.698;23.344;2023-10-09T01:21:22;8.60;;;1.80;;
44204;SDS011;30163;42.698;23.344;2023-10-09T01:23:54;8.77;;;2.05;;
44204;SDS011;30163;42.698;23.344;2023-10-09T01:28:59;4.28;;;2.00;;
44204;SDS011;30163;42.698;23.344;2023-10-09T01:31:26;3.10;;;1.90;;
44204;SDS011;30163;42.698;23.344;2023-10-09T01:33:52;3.00;;;1.60;;
44204;SDS011;30163;42.698;23.344;2023-10-09T01:36:24;2.83;;;1.70;;
44204;SDS011;30163;42.698;23.344;2023-10-09T01:39:00;4.82;;;2.17;;
44204;SDS011;30163;42.698;23.344;2023-10-09T01:41:34;10.05;;;1.90;;
44204;SDS011;30163;42.698;23.344;2023-10-09T01:44:00;5.75;;;2.05;;
44204;SDS011;30163;42.698;23.344;2023-10-09T01:46:35;8.77;;;1.70;;
44204;SDS011;30163;42.698;23.344;2023-10-09T01:49:01;6.45;;;1.90;;
44204;SDS011;30163;42.698;23.344;2023-10-09T01:54:01;3.58;;;2.15;;
44204;SDS011;30163;42.698;23.344;2023-10-09T01:56:27;2.38;;;1.50;;
44204;SDS011;30163;42.698;23.344;2023-10-09T01:58:53;6.18;;;1.58;;
44204;SDS011;30163;42.698;23.344;2023-10-09T02:01:22;4.35;;;1.77;;
44204;SDS011;30163;42.698;23.344;2023-10-09T02:03:48;4.85;;;1.88;;
44204;SDS011;30163;42.698;23.344;2023-10-09T02:06:16;6.80;;;2.28;;
44204;SDS011;30163;42.698;23.344;2023-10-09T02:08:52;3.53;;;1.70;;
44204;SDS011;30163;42.698;23.344;2023-10-09T02:11:21;3.55;;;1.92;;
44204;SDS011;30163;42.698;23.344;2023-10-09T02:14:01;3.88;;;1.85;;
44204;SDS011;30163;42.698;23.344;2023-10-09T02:16:27;4.72;;;2.10;;
44204;SDS011;30163;42.698;23.344;2023-10-09T02:18:57;9.70;;;1.73;;
44204;SDS011;30163;42.698;23.344;2023-10-09T02:21:24;3.50;;;1.70;;
44204;SDS011;30163;42.698;23.344;2023-10-09T02:23:59;4.82;;;2.17;;
44204;SDS011;30163;42.698;23.344;2023-10-09T02:26:29;5.47;;;1.42;;
44204;SDS011;30163;42.698;23.344;2023-10-09T02:29:04;6.45;;;1.80;;
44204;SDS011;30163;42.698;23.344;2023-10-09T02:31:40;9.25;;;1.60;;
44204;SDS011;30163;42.698;23.344;2023-10-09T02:34:09;11.90;;;2.40;;
44204;SDS011;30163;42.698;23.344;2023-10-09T02:36:38;3.92;;;1.73;;
44204;SDS011;30163;42.698;23.344;2023-10-09T02:39:14;2.55;;;1.70;;
44204;SDS011;30163;42.698;23.344;2023-10-09T02:41:52;5.95;;;1.80;;
44204;SDS011;30163;42.698;23.344;2023-10-09T02:44:25;4.28;;;1.50;;
44204;SDS011;30163;42.698;23.344;2023-10-09T02:46:51;2.78;;;1.55;;
44204;SDS011;30163;42.698;23.344;2023-10-09T02:49:22;3.35;;;1.73;;
44204;SDS011;30163;42.698;23.344;2023-10-09T02:51:48;13.13;;;1.75;;
44204;SDS011;30163;42.698;23.344;2023-10-09T02:54:18;3.65;;;1.90;;
44204;SDS011;30163;42.698;23.344;2023-10-09T02:56:47;2.63;;;1.60;;
44204;SDS011;30163;42.698;23.344;2023-10-09T02:59:19;7.63;;;1.88;;
44204;SDS011;30163;42.698;23.344;2023-10-09T03:01:47;2.10;;;1.60;;
44204;SDS011;30163;42.698;23.344;2023-10-09T03:04:13;2.15;;;1.50;;
44204;SDS011;30163;42.698;23.344;2023-10-09T03:06:40;4.18;;;1.65;;
44204;SDS011;30163;42.698;23.344;2023-10-09T03:09:15;10.48;;;1.75;;
44204;SDS011;30163;42.698;23.344;2023-10-09T03:11:45;2.15;;;1.73;;
44204;SDS011;30163;42.698;23.344;2023-10-09T03:14:11;2.40;;;1.80;;
44204;SDS011;30163;42.698;23.344;2023-10-09T03:16:37;3.55;;;1.58;;
44204;SDS011;30163;42.698;23.344;2023-10-09T03:19:03;2.72;;;1.65;;
44204;SDS011;30163;42.698;23.344;2023-10-09T03:21:28;2.55;;;1.65;;
44204;SDS011;30163;42.698;23.344;2023-10-09T03:23:54;2.45;;;1.48;;
44204;SDS011;30163;42.698;23.344;2023-10-09T03:26:20;2.33;;;1.48;;
44204;SDS011;30163;42.698;23.344;2023-10-09T03:28:46;5.70;;;2.28;;
44204;SDS011;30163;42.698;23.344;2023-10-09T03:31:12;9.70;;;2.03;;
44204;SDS011;30163;42.698;23.344;2023-10-09T03:33:38;6.15;;;2.70;;
44204;SDS011;30163;42.698;23.344;2023-10-09T03:36:05;6.90;;;1.77;;
44204;SDS011;30163;42.698;23.344;2023-10-09T03:38:41;2.90;;;1.40;;
44204;SDS011;30163;42.698;23.344;2023-10-09T03:41:07;4.30;;;1.42;;
44204;SDS011;30163;42.698;23.344;2023-10-09T03:43:37;4.95;;;1.55;;
44204;SDS011;30163;42.698;23.344;2023-10-09T03:46:09;4.15;;;1.67;;
44204;SDS011;30163;42.698;23.344;2023-10-09T03:48:49;3.25;;;1.50;;
44204;SDS011;30163;42.698;23.344;2023-10-09T03:51:17;4.65;;;1.38;;
44204;SDS011;30163;42.698;23.344;2023-10-09T03:53:48;1.88;;;1.40;;
44204;SDS011;30163;42.698;23.344;2023-10-09T03:56:14;3.95;;;1.40;;
44204;SDS011;30163;42.698;23.344;2023-10-09T03:58:44;4.07;;;1.60;;
44204;SDS011;30163;42.698;23.344;2023-10-09T04:03:46;2.33;;;1.30;;
44204;SDS011;30163;42.698;23.344;2023-10-09T04:06:12;7.80;;;1.85;;
44204;SDS011;30163;42.698;23.344;2023-10-09T04:08:37;10.23;;;1.70;;
44204;SDS011;30163;42.698;23.344;2023-10-09T04:11:11;2.95;;;1.40;;
44204;SDS011;30163;42.698;23.344;2023-10-09T04:13:44;4.95;;;1.35;;
44204;SDS011;30163;42.698;23.344;2023-10-09T04:16:14;1.75;;;1.40;;
44204;SDS011;30163;42.698;23.344;2023-10-09T04:18:59;2.25;;;1.58;;
44204;SDS011;30163;42.698;23.344;2023-10-09T04:21:25;9.75;;;1.45;;
44204;SDS011;30163;42.698;23.344;2023-10-09T04:24:03;6.55;;;1.30;;
44204;SDS011;30163;42.698;23.344;2023-10-09T04:26:42;3.58;;;1.42;;
44204;SDS011;30163;42.698;23.344;2023-10-09T04:29:12;2.50;;;1.38;;
44204;SDS011;30163;42.698;23.344;2023-10-09T04:31:54;5.10;;;1.38;;
44204;SDS011;30163;42.698;23.344;2023-10-09T04:34:26;1.95;;;1.40;;
44204;SDS011;30163;42.698;23.344;2023-10-09T04:37:00;5.00;;;1.25;;
44204;SDS011;30163;42.698;23.344;2023-10-09T04:39:29;4.35;;;1.40;;
44204;SDS011;30163;42.698;23.344;2023-10-09T04:41:54;2.00;;;1.23;;
44204;SDS011;30163;42.698;23.344;2023-10-09T04:44:39;2.00;;;1.23;;
44204;SDS011;30163;42.698;23.344;2023-10-09T04:47:16;1.92;;;1.27;;
44204;SDS011;30163;42.698;23.344;2023-10-09T04:49:42;3.65;;;1.88;;
44204;SDS011;30163;42.698;23.344;2023-10-09T04:52:16;2.20;;;1.38;;
44204;SDS011;30163;42.698;23.344;2023-10-09T04:54:54;4.22;;;1.95;;
44204;SDS011;30163;42.698;23.344;2023-10-09T04:57:32;5.20;;;1.50;;
44204;SDS011;30163;42.698;23.344;2023-10-09T05:00:18;7.25;;;1.67;;
44204;SDS011;30163;42.698;23.344;2023-10-09T05:05:23;7.88;;;1.67;;
44204;SDS011;30163;42.698;23.344;2023-10-09T05:08:07;2.92;;;1.67;;
44204;SDS011;30163;42.698;23.344;2023-10-09T05:13:27;2.80;;;1.70;;
44204;SDS011;30163;42.698;23.344;2023-10-09T05:16:06;2.38;;;1.45;;
44204;SDS011;30163;42.698;23.344;2023-10-09T05:18:41;3.90;;;1.80;;
44204;SDS011;30163;42.698;23.344;2023-10-09T05:21:07;3.05;;;1.60;;
44204;SDS011;30163;42.698;23.344;2023-10-09T05:23:38;4.15;;;2.03;;
44204;SDS011;30163;42.698;23.344;2023-10-09T05:26:14;11.00;;;1.83;;
44204;SDS011;30163;42.698;23.344;2023-10-09T05:29:06;1.55;;;1.33;;
44204;SDS011;30163;42.698;23.344;2023-10-09T05:31:50;5.53;;;1.60;;
44204;SDS011;30163;42.698;23.344;2023-10-09T05:34:22;6.53;;;1.83;;
44204;SDS011;30163;42.698;23.344;2023-10-09T05:36:49;3.67;;;1.38;;
44204;SDS011;30163;42.698;23.344;2023-10-09T05:39:14;4.63;;;1.20;;
44204;SDS011;30163;42.698;23.344;2023-10-09T05:41:46;3.67;;;1.58;;
44204;SDS011;30163;42.698;23.344;2023-10-09T05:44:24;2.30;;;1.60;;
44204;SDS011;30163;42.698;23.344;2023-10-09T05:47:09;1.98;;;1.52;;
44204;SDS011;30163;42.698;23.344;2023-10-09T05:49:52;3.33;;;1.55;;
44204;SDS011;30163;42.698;23.344;2023-10-09T05:52:47;8.35;;;1.65;;
44204;SDS011;30163;42.698;23.344;2023-10-09T05:57:44;3.20;;;1.38;;
44204;SDS011;30163;42.698;23.344;2023-10-09T06:00:30;16.90;;;2.00;;
44204;SDS011;30163;42.698;23.344;2023-10-09T06:03:14;1.25;;;1.15;;
44204;SDS011;30163;42.698;23.344;2023-10-09T06:08:27;2.80;;;1.50;;
44204;SDS011;30163;42.698;23.344;2023-10-09T06:11:07;2.63;;;1.40;;
44204;SDS011;30163;42.698;23.344;2023-10-09T06:13:52;4.00;;;1.58;;
44204;SDS011;30163;42.698;23.344;2023-10-09T06:16:39;4.40;;;1.75;;
44204;SDS011;30163;42.698;23.344;2023-10-09T06:19:05;2.88;;;1.65;;
44204;SDS011;30163;42.698;23.344;2023-10-09T06:21:40;2.58;;;1.50;;
44204;SDS011;30163;42.698;23.344;2023-10-09T06:24:19;2.00;;;1.20;;
44204;SDS011;30163;42.698;23.344;2023-10-09T06:26:45;3.45;;;1.70;;
44204;SDS011;30163;42.698;23.344;2023-10-09T06:29:23;2.67;;;1.77;;
44204;SDS011;30163;42.698;23.344;2023-10-09T06:32:02;4.03;;;1.92;;
44204;SDS011;30163;42.698;23.344;2023-10-09T06:34:44;3.10;;;1.80;;
44204;SDS011;30163;42.698;23.344;2023-10-09T06:37:22;4.80;;;2.20;;
44204;SDS011;30163;42.698;23.344;2023-10-09T06:39:48;11.00;;;2.20;;
44204;SDS011;30163;42.698;23.344;2023-10-09T06:45:11;6.07;;;1.52;;
44204;SDS011;30163;42.698;23.344;2023-10-09T06:47:46;2.30;;;1.40;;
44204;SDS011;30163;42.698;23.344;2023-10-09T06:50:34;5.18;;;1.27;;
44204;SDS011;30163;42.698;23.344;2023-10-09T06:53:18;6.50;;;1.52;;
44204;SDS011;30163;42.698;23.344;2023-10-09T06:55:44;10.23;;;1.92;;
44204;SDS011;30163;42.698;23.344;2023-10-09T06:58:17;4.43;;;2.08;;
44204;SDS011;30163;42.698;23.344;2023-10-09T07:00:50;2.00;;;1.48;;
44204;SDS011;30163;42.698;23.344;2023-10-09T07:03:34;2.65;;;1.10;;
44204;SDS011;30163;42.698;23.344;2023-10-09T07:06:06;8.15;;;1.50;;
44204;SDS011;30163;42.698;23.344;2023-10-09T07:08:54;6.63;;;1.63;;
44204;SDS011;30163;42.698;23.344;2023-10-09T07:11:44;7.80;;;1.65;;
44204;SDS011;30163;42.698;23.344;2023-10-09T07:14:23;6.15;;;1.40;;
44204;SDS011;30163;42.698;23.344;2023-10-09T07:17:02;5.85;;;1.50;;
44204;SDS011;30163;42.698;23.344;2023-10-09T07:19:52;2.88;;;1.42;;
44204;SDS011;30163;42.698;23.344;2023-10-09T07:22:21;2.22;;;1.60;;
44204;SDS011;30163;42.698;23.344;2023-10-09T07:24:50;3.45;;;1.45;;
44204;SDS011;30163;42.698;23.344;2023-10-09T07:27:26;1.52;;;1.10;;
44204;SDS011;30163;42.698;23.344;2023-10-09T07:30:12;7.05;;;1.63;;
44204;SDS011;30163;42.698;23.344;2023-10-09T07:32:57;7.40;;;1.48;;
44204;SDS011;30163;42.698;23.344;2023-10-09T07:35:36;9.50;;;1.87;;
44204;SDS011;30163;42.698;23.344;2023-10-09T07:38:09;2.70;;;1.40;;
44204;SDS011;30163;42.698;23.344;2023-10-09T07:40:44;7.45;;;1.50;;
44204;SDS011;30163;42.698;23.344;2023-10-09T07:43:24;10.00;;;1.88;;
44204;SDS011;30163;42.698;23.344;2023-10-09T07:46:14;4.63;;;1.67;;
44204;SDS011;30163;42.698;23.344;2023-10-09T07:49:17;3.10;;;1.60;;
44204;SDS011;30163;42.698;23.344;2023-10-09T07:51:49;4.53;;;1.40;;
44204;SDS011;30163;42.698;23.344;2023-10-09T07:54:17;3.35;;;1.70;;
44204;SDS011;30163;42.698;23.344;2023-10-09T07:56:57;9.48;;;1.67;;
44204;SDS011;30163;42.698;23.344;2023-10-09T07:59:34;9.48;;;1.58;;
44204;SDS011;30163;42.698;23.344;2023-10-09T08:02:06;4.53;;;2.28;;
44204;SDS011;30163;42.698;23.344;2023-10-09T08:07:18;4.97;;;2.33;;
44204;SDS011;30163;42.698;23.344;2023-10-09T08:10:00;3.30;;;1.85;;
44204;SDS011;30163;42.698;23.344;2023-10-09T08:12:48;5.88;;;1.88;;
44204;SDS011;30163;42.698;23.344;2023-10-09T08:15:14;3.90;;;1.27;;
44204;SDS011;30163;42.698;23.344;2023-10-09T08:17:53;3.13;;;1.60;;
44204;SDS011;30163;42.698;23.344;2023-10-09T08:20:24;7.65;;;1.55;;
44204;SDS011;30163;42.698;23.344;2023-10-09T08:22:54;3.42;;;1.30;;
44204;SDS011;30163;42.698;23.344;2023-10-09T08:25:22;1.98;;;1.63;;
44204;SDS011;30163;42.698;23.344;2023-10-09T08:27:58;2.13;;;1.70;;
44204;SDS011;30163;42.698;23.344;2023-10-09T08:30:45;2.65;;;1.88;;
44204;SDS011;30163;42.698;23.344;2023-10-09T08:33:16;3.58;;;1.95;;
44204;SDS011;30163;42.698;23.344;2023-10-09T08:35:50;3.17;;;1.60;;
44204;SDS011;30163;42.698;23.344;2023-10-09T08:38:16;3.28;;;1.70;;
44204;SDS011;30163;42.698;23.344;2023-10-09T08:40:53;5.90;;;1.27;;
44204;SDS011;30163;42.698;23.344;2023-10-09T08:43:23;3.58;;;1.85;;
44204;SDS011;30163;42.698;23.344;2023-10-09T08:45:50;5.63;;;1.52;;
44204;SDS011;30163;42.698;23.344;2023-10-09T08:48:18;3.60;;;1.58;;
44204;SDS011;30163;42.698;23.344;2023-10-09T08:50:44;10.55;;;1.67;;
44204;SDS011;30163;42.698;23.344;2023-10-09T08:53:11;3.17;;;1.60;;
44204;SDS011;30163;42.698;23.344;2023-10-09T08:55:37;7.55;;;1.67;;
44204;SDS011;30163;42.698;23.344;2023-10-09T08:58:04;2.22;;;1.30;;
44204;SDS011;30163;42.698;23.344;2023-10-09T09:00:43;6.30;;;1.95;;
44204;SDS011;30163;42.698;23.344;2023-10-09T09:03:10;2.55;;;1.60;;
44204;SDS011;30163;42.698;23.344;2023-10-09T09:05:46;1.65;;;1.20;;
44204;SDS011;30163;42.698;23.344;2023-10-09T09:08:26;5.90;;;1.17;;
44204;SDS011;30163;42.698;23.344;2023-10-09T09:11:08;6.80;;;1.40;;
44204;SDS011;30163;42.698;23.344;2023-10-09T09:16:29;2.38;;;1.45;;
44204;SDS011;30163;42.698;23.344;2023-10-09T09:18:58;8.93;;;1.60;;
44204;SDS011;30163;42.698;23.344;2023-10-09T09:21:34;3.80;;;1.48;;
44204;SDS011;30163;42.698;23.344;2023-10-09T09:24:05;1.40;;;1.00;;
44204;SDS011;30163;42.698;23.344;2023-10-09T09:27:09;14.43;;;2.17;;
44204;SDS011;30163;42.698;23.344;2023-10-09T09:32:03;6.15;;;2.40;;
44204;SDS011;30163;42.698;23.344;2023-10-09T09:37:30;6.32;;;1.58;;
44204;SDS011;30163;42.698;23.344;2023-10-09T09:40:04;2.65;;;1.70;;
44204;SDS011;30163;42.698;23.344;2023-10-09T09:42:48;4.75;;;1.33;;
44204;SDS011;30163;42.698;23.344;2023-10-09T09:45:14;6.35;;;1.27;;
44204;SDS011;30163;42.698;23.344;2023-10-09T09:47:44;2.67;;;1.30;;
44204;SDS011;30163;42.698;23.344;2023-10-09T09:50:17;3.75;;;1.35;;
44204;SDS011;30163;42.698;23.344;2023-10-09T09:52:49;2.85;;;1.33;;
44204;SDS011;30163;42.698;23.344;2023-10-09T09:55:18;3.17;;;1.52;;
44204;SDS011;30163;42.698;23.344;2023-10-09T09:57:48;7.60;;;1.73;;
44204;SDS011;30163;42.698;23.344;2023-10-09T10:00:17;5.00;;;1.83;;
44204;SDS011;30163;42.698;23.344;2023-10-09T10:03:41;2.95;;;1.50;;
44204;SDS011;30163;42.698;23.344;2023-10-09T10:08:30;9.88;;;1.55;;
44204;SDS011;30163;42.698;23.344;2023-10-09T10:10:58;5.28;;;1.42;;
44204;SDS011;30163;42.698;23.344;2023-10-09T10:16:09;2.83;;;1.60;;
44204;SDS011;30163;42.698;23.344;2023-10-09T10:18:58;7.60;;;1.60;;
44204;SDS011;30163;42.698;23.344;2023-10-09T10:21:33;4.18;;;2.03;;
44204;SDS011;30163;42.698;23.344;2023-10-09T10:35:17;3.22;;;1.40;;
44204;SDS011;30163;42.698;23.344;2023-10-09T10:37:45;3.50;;;1.80;;
44204;SDS011;30163;42.698;23.344;2023-10-09T10:40:26;3.05;;;1.52;;
44204;SDS011;30163;42.698;23.344;2023-10-09T10:43:06;3.90;;;1.88;;
44204;SDS011;30163;42.698;23.344;2023-10-09T10:46:08;18.80;;;2.55;;
44204;SDS011;30163;42.698;23.344;2023-10-09T10:48:52;1.52;;;1.20;;
44204;SDS011;30163;42.698;23.344;2023-10-09T10:51:28;2.17;;;1.55;;
44204;SDS011;30163;42.698;23.344;2023-10-09T10:54:08;2.15;;;1.40;;
44204;SDS011;30163;42.698;23.344;2023-10-09T10:56:52;3.53;;;2.05;;
44204;SDS011;30163;42.698;23.344;2023-10-09T10:59:18;11.23;;;2.17;;
44204;SDS011;30163;42.698;23.344;2023-10-09T11:01:51;6.03;;;1.98;;
44204;SDS011;30163;42.698;23.344;2023-10-09T11:04:25;8.80;;;2.03;;
44204;SDS011;30163;42.698;23.344;2023-10-09T11:06:55;1.77;;;1.23;;
44204;SDS011;30163;42.698;23.344;2023-10-09T11:09:47;3.28;;;1.30;;
44204;SDS011;30163;42.698;23.344;2023-10-09T11:12:28;6.13;;;2.72;;
44204;SDS011;30163;42.698;23.344;2023-10-09T11:15:06;4.78;;;2.45;;
44204;SDS011;30163;42.698;23.344;2023-10-09T11:18:03;3.97;;;2.50;;
44204;SDS011;30163;42.698;23.344;2023-10-09T11:20:44;17.15;;;8.52;;
44204;SDS011;30163;42.698;23.344;2023-10-09T11:23:28;23.05;;;9.48;;
44204;SDS011;30163;42.698;23.344;2023-10-09T11:26:00;14.20;;;6.73;;
44204;SDS011;30163;42.698;23.344;2023-10-09T11:29:08;7.07;;;4.10;;
44204;SDS011;30163;42.698;23.344;2023-10-09T11:34:26;3.53;;;2.03;;
44204;SDS011;30163;42.698;23.344;2023-10-09T11:36:57;6.10;;;2.13;;
44204;SDS011;30163;42.698;23.344;2023-10-09T11:39:30;6.32;;;2.40;;
44204;SDS011;30163;42.698;23.344;2023-10-09T11:42:08;4.45;;;1.75;;
44204;SDS011;30163;42.698;23.344;2023-10-09T11:44:42;3.25;;;1.35;;
44204;SDS011;30163;42.698;23.344;2023-10-09T11:47:10;4.30;;;1.40;;
44204;SDS011;30163;42.698;23.344;2023-10-09T11:49:58;7.28;;;2.47;;
44204;SDS011;30163;42.698;23.344;2023-10-09T11:52:30;2.67;;;1.52;;
44204;SDS011;30163;42.698;23.344;2023-10-09T11:54:56;1.85;;;1.58;;
44204;SDS011;30163;42.698;23.344;2023-10-09T11:57:22;8.65;;;1.50;;
44204;SDS011;30163;42.698;23.344;2023-10-09T11:59:55;7.63;;;2.30;;
44204;SDS011;30163;42.698;23.344;2023-10-09T12:02:25;5.43;;;2.78;;
44204;SDS011;30163;42.698;23.344;2023-10-09T12:04:50;7.25;;;1.98;;
44204;SDS011;30163;42.698;23.344;2023-10-09T12:07:16;3.30;;;2.42;;
44204;SDS011;30163;42.698;23.344;2023-10-09T12:09:45;4.07;;;2.22;;
44204;SDS011;30163;42.698;23.344;2023-10-09T12:12:12;4.70;;;1.98;;
44204;SDS011;30163;42.698;23.344;2023-10-09T12:14:38;2.72;;;1.70;;
44204;SDS011;30163;42.698;23.344;2023-10-09T12:17:04;5.88;;;1.73;;
44204;SDS011;30163;42.698;23.344;2023-10-09T12:19:34;2.63;;;1.13;;
44204;SDS011;30163;42.698;23.344;2023-10-09T12:22:01;2.53;;;1.40;;
44204;SDS011;30163;42.698;23.344;2023-10-09T12:24:29;6.85;;;2.25;;
44204;SDS011;30163;42.698;23.344;2023-10-09T12:26:55;3.97;;;1.67;;
44204;SDS011;30163;42.698;23.344;2023-10-09T12:29:20;5.03;;;1.52;;
44204;SDS011;30163;42.698;23.344;2023-10-09T12:31:46;2.42;;;0.90;;
44204;SDS011;30163;42.698;23.344;2023-10-09T12:34:12;3.08;;;1.40;;
44204;SDS011;30163;42.698;23.344;2023-10-09T12:36:42;2.33;;;1.42;;
44204;SDS011;30163;42.698;23.344;2023-10-09T12:39:10;2.72;;;1.20;;
44204;SDS011;30163;42.698;23.344;2023-10-09T12:41:43;2.55;;;1.27;;
44204;SDS011;30163;42.698;23.344;2023-10-09T12:44:09;2.85;;;1.45;;
44204;SDS011;30163;42.698;23.344;2023-10-09T12:46:40;5.63;;;1.58;;
44204;SDS011;30163;42.698;23.344;2023-10-09T12:49:06;8.50;;;1.20;;
44204;SDS011;30163;42.698;23.344;2023-10-09T12:51:31;1.75;;;1.10;;
44204;SDS011;30163;42.698;23.344;2023-10-09T12:53:57;1.80;;;1.15;;
44204;SDS011;30163;42.698;23.344;2023-10-09T12:56:22;2.15;;;1.33;;
44204;SDS011;30163;42.698;23.344;2023-10-09T12:58:57;1.58;;;1.20;;
44204;SDS011;30163;42.698;23.344;2023-10-09T13:01:27;1.63;;;1.10;;
44204;SDS011;30163;42.698;23.344;2023-10-09T13:03:57;1.65;;;1.00;;
44204;SDS011;30163;42.698;23.344;2023-10-09T13:06:25;2.15;;;1.30;;
44204;SDS011;30163;42.698;23.344;2023-10-09T13:08:51;4.00;;;1.52;;
44204;SDS011;30163;42.698;23.344;2023-10-09T13:11:17;2.58;;;1.30;;
44204;SDS011;30163;42.698;23.344;2023-10-09T13:13:43;3.13;;;1.25;;
44204;SDS011;30163;42.698;23.344;2023-10-09T13:16:21;2.22;;;1.27;;
44204;SDS011;30163;42.698;23.344;2023-10-09T13:21:16;3.60;;;1.50;;
44204;SDS011;30163;42.698;23.344;2023-10-09T13:23:48;1.80;;;1.17;;
44204;SDS011;30163;42.698;23.344;2023-10-09T13:26:19;4.32;;;1.52;;
44204;SDS011;30163;42.698;23.344;2023-10-09T13:28:58;3.15;;;1.10;;
44204;SDS011;30163;42.698;23.344;2023-10-09T13:31:24;2.65;;;1.15;;
44204;SDS011;30163;42.698;23.344;2023-10-09T13:33:57;2.67;;;1.42;;
44204;SDS011;30163;42.698;23.344;2023-10-09T13:36:24;1.60;;;1.23;;
44204;SDS011;30163;42.698;23.344;2023-10-09T13:39:00;3.03;;;1.38;;
44204;SDS011;30163;42.698;23.344;2023-10-09T13:41:56;6.05;;;1.48;;
44204;SDS011;30163;42.698;23.344;2023-10-09T13:44:29;2.88;;;1.52;;
44204;SDS011;30163;42.698;23.344;2023-10-09T13:46:55;3.92;;;1.50;;
44204;SDS011;30163;42.698;23.344;2023-10-09T13:49:22;5.93;;;1.25;;
44204;SDS011;30163;42.698;23.344;2023-10-09T13:51:57;1.95;;;1.25;;
44204;SDS011;30163;42.698;23.344;2023-10-09T13:54:23;4.28;;;1.92;;
44204;SDS011;30163;42.698;23.344;2023-10-09T13:56:58;4.72;;;1.63;;
44204;SDS011;30163;42.698;23.344;2023-10-09T13:59:24;2.63;;;1.70;;
44204;SDS011;30163;42.698;23.344;2023-10-09T14:01:50;3.20;;;1.88;;
44204;SDS011;30163;42.698;23.344;2023-10-09T14:04:19;2.75;;;1.55;;
44204;SDS011;30163;42.698;23.344;2023-10-09T14:06:45;11.80;;;1.63;;
44204;SDS011;30163;42.698;23.344;2023-10-09T14:09:12;3.03;;;1.77;;
44204;SDS011;30163;42.698;23.344;2023-10-09T14:11:55;12.18;;;1.70;;
44204;SDS011;30163;42.698;23.344;2023-10-09T14:14:31;5.30;;;1.95;;
44204;SDS011;30163;42.698;23.344;2023-10-09T14:17:03;3.40;;;1.70;;
44204;SDS011;30163;42.698;23.344;2023-10-09T14:19:37;11.30;;;2.47;;
44204;SDS011;30163;42.698;23.344;2023-10-09T14:22:03;7.20;;;2.13;;
44204;SDS011;30163;42.698;23.344;2023-10-09T14:24:30;4.00;;;1.83;;
44204;SDS011;30163;42.698;23.344;2023-10-09T14:26:59;6.80;;;1.98;;
44204;SDS011;30163;42.698;23.344;2023-10-09T14:29:28;3.83;;;1.80;;
44204;SDS011;30163;42.698;23.344;2023-10-09T14:31:53;7.65;;;2.03;;
44204;SDS011;30163;42.698;23.344;2023-10-09T14:34:28;6.20;;;2.88;;
44204;SDS011;30163;42.698;23.344;2023-10-09T14:37:01;6.20;;;2.00;;
44204;SDS011;30163;42.698;23.344;2023-10-09T14:39:28;4.40;;;2.30;;
44204;SDS011;30163;42.698;23.344;2023-10-09T14:41:54;6.10;;;1.77;;
44204;SDS011;30163;42.698;23.344;2023-10-09T14:44:24;6.43;;;1.80;;
44204;SDS011;30163;42.698;23.344;2023-10-09T14:49:17;4.57;;;1.87;;
44204;SDS011;30163;42.698;23.344;2023-10-09T14:51:46;11.60;;;2.42;;
44204;SDS011;30163;42.698;23.344;2023-10-09T14:54:12;6.72;;;2.28;;
44204;SDS011;30163;42.698;23.344;2023-10-09T14:56:42;8.55;;;2.42;;
44204;SDS011;30163;42.698;23.344;2023-10-09T14:59:08;5.40;;;2.38;;
44204;SDS011;30163;42.698;23.344;2023-10-09T15:01:36;11.20;;;2.70;;
44204;SDS011;30163;42.698;23.344;2023-10-09T15:04:01;13.00;;;2.50;;
44204;SDS011;30163;42.698;23.344;2023-10-09T15:06:29;10.10;;;2.55;;
44204;SDS011;30163;42.698;23.344;2023-10-09T15:08:56;6.18;;;2.17;;
44204;SDS011;30163;42.698;23.344;2023-10-09T15:11:23;12.10;;;2.78;;
44204;SDS011;30163;42.698;23.344;2023-10-09T15:13:51;10.52;;;2.70;;
44204;SDS011;30163;42.698;23.344;2023-10-09T15:16:17;4.75;;;2.35;;
44204;SDS011;30163;42.698;23.344;2023-10-09T15:18:45;11.18;;;3.22;;
44204;SDS011;30163;42.698;23.344;2023-10-09T15:21:10;21.27;;;2.90;;
44204;SDS011;30163;42.698;23.344;2023-10-09T15:23:35;10.48;;;3.35;;
44204;SDS011;30163;42.698;23.344;2023-10-09T15:26:01;9.05;;;2.60;;
44204;SDS011;30163;42.698;23.344;2023-10-09T15:28:27;7.53;;;2.60;;
44204;SDS011;30163;42.698;23.344;2023-10-09T15:30:57;8.98;;;3.00;;
44204;SDS011;30163;42.698;23.344;2023-10-09T15:33:24;8.85;;;2.97;;
44204;SDS011;30163;42.698;23.344;2023-10-09T15:35:51;6.25;;;2.90;;
44204;SDS011;30163;42.698;23.344;2023-10-09T15:38:17;5.82;;;2.47;;
44204;SDS011;30163;42.698;23.344;2023-10-09T15:40:44;9.05;;;2.72;;
44204;SDS011;30163;42.698;23.344;2023-10-09T15:43:12;5.05;;;2.75;;
44204;SDS011;30163;42.698;23.344;2023-10-09T15:45:44;12.13;;;2.95;;
44204;SDS011;30163;42.698;23.344;2023-10-09T15:48:13;8.88;;;2.85;;
44204;SDS011;30163;42.698;23.344;2023-10-09T15:50:43;10.48;;;2.75;;
44204;SDS011;30163;42.698;23.344;2023-10-09T15:53:13;7.63;;;3.42;;
44204;SDS011;30163;42.698;23.344;2023-10-09T15:55:42;15.48;;;4.30;;
44204;SDS011;30163;42.698;23.344;2023-10-09T15:58:09;6.03;;;3.10;;
44204;SDS011;30163;42.698;23.344;2023-10-09T16:00:34;12.57;;;3.88;;
44204;SDS011;30163;42.698;23.344;2023-10-09T16:02:59;7.43;;;3.10;;